createdAt,value
2019-04-25T00:02:40.808Z,2.00
2019-04-25T00:05:11.404Z,1.90
2019-04-25T00:07:42.484Z,1.80
2019-04-25T00:10:11.707Z,2.30
2019-04-25T00:12:43.578Z,2.20
2019-04-25T00:15:13.330Z,1.70
2019-04-25T00:17:43.559Z,1.90
2019-04-25T00:20:14.166Z,2.10
2019-04-25T00:22:58.576Z,1.80
2019-04-25T00:26:01.893Z,1.80
2019-04-25T00:28:31.644Z,2.10
2019-04-25T00:31:00.238Z,1.87
2019-04-25T00:33:31.539Z,2.17
2019-04-25T00:36:00.067Z,2.00
2019-04-25T00:38:28.759Z,2.00
2019-04-25T00:40:57.471Z,2.30
2019-04-25T00:43:26.215Z,2.13
2019-04-25T00:45:54.795Z,2.30
2019-04-25T00:48:23.539Z,2.13
2019-04-25T00:50:54.591Z,2.07
2019-04-25T00:53:22.501Z,1.83
2019-04-25T00:55:52.510Z,2.10
2019-04-25T00:58:43.287Z,1.77
2019-04-25T01:01:43.111Z,2.27
2019-04-25T01:04:14.008Z,2.53
2019-04-25T01:06:43.948Z,2.33
2019-04-25T01:09:16.377Z,1.97
2019-04-25T01:11:44.850Z,1.70
2019-04-25T01:14:13.665Z,2.10
2019-04-25T01:16:42.301Z,2.30
2019-04-25T01:19:11.213Z,2.40
2019-04-25T01:21:39.564Z,2.73
2019-04-25T01:24:09.172Z,2.20
2019-04-25T01:26:37.884Z,2.40
2019-04-25T01:29:06.763Z,2.30
2019-04-25T01:31:35.726Z,2.73
2019-04-25T01:34:06.844Z,2.20
2019-04-25T01:36:55.873Z,2.20
2019-04-25T01:39:47.485Z,2.27
2019-04-25T01:42:35.900Z,2.07
2019-04-25T01:45:05.470Z,2.17
2019-04-25T01:47:34.731Z,1.80
2019-04-25T01:50:05.062Z,2.10
2019-04-25T01:52:33.564Z,2.40
2019-04-25T01:55:03.518Z,2.10
2019-04-25T01:57:33.787Z,2.27
2019-04-25T02:00:03.935Z,2.10
2019-04-25T02:02:33.657Z,1.77
2019-04-25T02:05:04.761Z,2.10
2019-04-25T02:07:33.364Z,2.43
2019-04-25T02:10:04.241Z,2.10
2019-04-25T02:12:39.463Z,2.17
2019-04-25T02:15:08.725Z,2.30
2019-04-25T02:17:37.381Z,1.73
2019-04-25T02:20:06.618Z,2.00
2019-04-25T02:22:36.011Z,2.10
2019-04-25T02:25:04.954Z,1.90
2019-04-25T02:27:34.199Z,2.17
2019-04-25T02:30:06.880Z,2.13
2019-04-25T02:32:37.237Z,2.00
2019-04-25T02:35:09.556Z,1.73
2019-04-25T02:37:38.130Z,2.23
2019-04-25T02:40:08.470Z,2.30
2019-04-25T02:42:37.536Z,2.00
2019-04-25T02:45:24.414Z,2.73
2019-04-25T02:48:29.971Z,2.87
2019-04-25T02:51:07.718Z,2.60
2019-04-25T02:53:39.671Z,2.40
2019-04-25T02:56:27.457Z,2.47
2019-04-25T02:58:39.082Z,2.80
2019-04-25T03:01:18.180Z,3.03
2019-04-25T03:03:40.770Z,2.37
2019-04-25T03:06:09.759Z,2.60
2019-04-25T03:08:38.359Z,2.73
2019-04-25T03:11:08.139Z,2.53
2019-04-25T03:13:38.575Z,2.43
2019-04-25T03:16:09.714Z,2.93
2019-04-25T03:18:46.862Z,2.57
2019-04-25T03:21:28.380Z,2.50
2019-04-25T03:23:56.659Z,2.67
2019-04-25T03:26:25.346Z,2.80
2019-04-25T03:28:54.067Z,2.87
2019-04-25T03:31:27.004Z,2.23
2019-04-25T03:33:55.906Z,2.37
2019-04-25T03:36:24.388Z,1.90
2019-04-25T03:38:54.159Z,1.80
2019-04-25T03:41:24.429Z,1.73
2019-04-25T03:43:54.174Z,1.60
2019-04-25T03:46:23.402Z,1.70
2019-04-25T03:48:53.859Z,2.30
2019-04-25T03:51:23.992Z,2.33
2019-04-25T03:53:53.588Z,2.30
2019-04-25T03:56:22.487Z,1.87
2019-04-25T03:58:50.942Z,2.40
2019-04-25T04:01:19.663Z,1.90
2019-04-25T04:03:48.333Z,2.60
2019-04-25T04:06:17.225Z,2.50
2019-04-25T04:08:45.639Z,2.73
2019-04-25T04:11:15.494Z,2.20
2019-04-25T04:13:47.202Z,2.33
2019-04-25T04:16:18.389Z,2.37
2019-04-25T04:18:49.701Z,2.40
2019-04-25T04:21:25.064Z,2.37
2019-04-25T04:24:09.594Z,2.23
2019-04-25T04:26:38.035Z,2.73
2019-04-25T04:29:06.761Z,2.63
2019-04-25T04:31:35.358Z,2.40
2019-04-25T04:34:04.092Z,2.30
2019-04-25T04:36:33.860Z,2.27
2019-04-25T04:39:04.423Z,2.50
2019-04-25T04:41:33.918Z,2.70
2019-04-25T04:44:04.005Z,2.00
2019-04-25T04:46:34.030Z,2.40
2019-04-25T04:49:03.895Z,2.97
2019-04-25T04:51:33.580Z,2.37
2019-04-25T04:54:03.427Z,2.47
2019-04-25T04:56:34.068Z,2.87
2019-04-25T04:59:03.700Z,2.17
2019-04-25T05:01:35.844Z,2.50
2019-04-25T05:04:25.598Z,2.30
2019-04-25T05:07:16.324Z,2.60
2019-04-25T05:09:44.899Z,2.03
2019-04-25T05:12:15.239Z,2.40
2019-04-25T05:14:43.883Z,2.40
2019-04-25T05:17:14.302Z,2.40
2019-04-25T05:19:43.406Z,2.40
2019-04-25T05:22:14.451Z,2.37
2019-04-25T05:24:43.843Z,2.33
2019-04-25T05:27:32.279Z,2.00
2019-04-25T05:29:50.564Z,2.30
2019-04-25T05:32:20.146Z,2.60
2019-04-25T05:34:49.413Z,2.00
2019-04-25T05:37:18.234Z,2.20
2019-04-25T05:39:48.886Z,2.10
2019-04-25T05:42:27.083Z,1.97
2019-04-25T05:44:58.779Z,2.10
2019-04-25T05:47:27.227Z,2.30
2019-04-25T05:49:55.833Z,2.17
2019-04-25T05:52:25.167Z,2.00
2019-04-25T05:54:55.027Z,2.60
2019-04-25T05:57:24.996Z,2.00
2019-04-25T05:59:54.632Z,2.27
2019-04-25T06:02:25.312Z,2.60
2019-04-25T06:04:54.030Z,2.20
2019-04-25T06:07:25.488Z,2.20
2019-04-25T06:10:19.687Z,2.53
2019-04-25T06:13:13.923Z,2.53
2019-04-25T06:15:45.323Z,2.40
2019-04-25T06:18:21.228Z,2.20
2019-04-25T06:20:49.885Z,2.20
2019-04-25T06:23:26.858Z,2.33
2019-04-25T06:25:55.594Z,2.50
2019-04-25T06:28:26.221Z,2.37
2019-04-25T06:30:54.868Z,2.50
2019-04-25T06:33:27.102Z,2.20
2019-04-25T06:35:56.933Z,2.47
2019-04-25T06:38:27.154Z,2.17
2019-04-25T06:40:56.991Z,2.33
2019-04-25T06:43:25.795Z,2.40
2019-04-25T06:46:24.488Z,2.70
2019-04-25T06:48:57.924Z,2.03
2019-04-25T06:51:46.138Z,2.30
2019-04-25T06:54:14.868Z,2.20
2019-04-25T06:56:43.528Z,2.60
2019-04-25T06:59:13.636Z,2.47
2019-04-25T07:01:43.874Z,2.67
2019-04-25T07:04:14.070Z,3.10
2019-04-25T07:06:44.421Z,2.40
2019-04-25T07:09:14.622Z,2.40
2019-04-25T07:11:44.038Z,2.00
2019-04-25T07:14:14.243Z,2.43
2019-04-25T07:16:43.324Z,2.37
2019-04-25T07:19:12.231Z,2.53
2019-04-25T07:21:41.051Z,2.30
2019-04-25T07:24:10.560Z,2.27
2019-04-25T07:27:03.775Z,2.73
2019-04-25T07:29:43.228Z,2.50
2019-04-25T07:32:18.327Z,2.53
2019-04-25T07:34:47.089Z,2.00
2019-04-25T07:37:16.586Z,2.50
2019-04-25T07:39:45.415Z,2.00
2019-04-25T07:42:14.169Z,2.50
2019-04-25T07:44:52.215Z,2.40
2019-04-25T07:47:13.672Z,2.13
2019-04-25T07:49:43.509Z,1.90
2019-04-25T07:52:13.555Z,2.17
2019-04-25T07:54:43.917Z,1.90
2019-04-25T07:57:13.581Z,2.20
2019-04-25T07:59:43.621Z,2.20
2019-04-25T08:02:13.366Z,2.17
2019-04-25T08:04:42.159Z,2.07
2019-04-25T08:07:10.885Z,2.30
2019-04-25T08:09:39.538Z,2.27
2019-04-25T08:12:08.141Z,2.23
2019-04-25T08:14:51.195Z,1.70
2019-04-25T08:17:39.966Z,1.80
2019-04-25T08:20:09.125Z,2.13
2019-04-25T08:22:52.978Z,1.97
2019-04-25T08:25:13.812Z,2.33
2019-04-25T08:27:44.135Z,2.10
2019-04-25T08:30:14.039Z,2.13
2019-04-25T08:32:43.930Z,1.80
2019-04-25T08:35:13.917Z,1.90
2019-04-25T08:37:44.118Z,1.90
2019-04-25T08:40:13.704Z,1.93
2019-04-25T08:42:44.066Z,2.27
2019-04-25T08:45:13.495Z,1.93
2019-04-25T08:47:43.793Z,2.43
2019-04-25T08:50:28.807Z,2.10
2019-04-25T08:52:49.437Z,2.00
2019-04-25T08:55:37.015Z,2.40
2019-04-25T08:58:19.263Z,1.97
2019-04-25T09:01:05.914Z,1.73
2019-04-25T09:03:44.220Z,1.87
2019-04-25T09:06:13.443Z,1.33
2019-04-25T09:08:44.035Z,1.53
2019-04-25T09:11:13.333Z,1.17
2019-04-25T09:13:43.836Z,1.33
2019-04-25T09:16:13.509Z,1.33
2019-04-25T09:18:44.319Z,1.20
2019-04-25T09:21:13.801Z,1.20
2019-04-25T09:23:43.758Z,1.37
2019-04-25T09:26:14.304Z,1.20
2019-04-25T09:28:45.332Z,1.63
2019-04-25T09:31:13.928Z,1.20
2019-04-25T09:33:45.351Z,1.93
2019-04-25T09:36:14.234Z,1.37
2019-04-25T09:38:47.971Z,1.40
2019-04-25T09:41:15.333Z,1.50
2019-04-25T09:43:45.714Z,1.50
2019-04-25T09:46:24.267Z,1.30
2019-04-25T09:49:21.247Z,1.47
2019-04-25T09:52:13.288Z,1.67
2019-04-25T09:54:50.599Z,1.67
2019-04-25T09:57:45.852Z,2.10
2019-04-25T10:00:24.216Z,1.83
2019-04-25T10:02:55.299Z,1.70
2019-04-25T10:05:24.582Z,1.67
2019-04-25T10:07:53.516Z,1.97
2019-04-25T10:10:22.023Z,1.80
2019-04-25T10:12:50.860Z,1.80
2019-04-25T10:15:44.747Z,1.90
2019-04-25T10:18:14.424Z,1.70
2019-04-25T10:20:44.874Z,1.77
2019-04-25T10:23:15.660Z,1.70
2019-04-25T10:25:45.107Z,1.77
2019-04-25T10:28:15.281Z,1.53
2019-04-25T10:30:43.846Z,1.60
2019-04-25T10:33:14.361Z,1.50
2019-04-25T10:35:50.824Z,1.40
2019-04-25T10:38:13.963Z,1.50
2019-04-25T10:40:45.190Z,1.67
2019-04-25T10:43:15.772Z,1.40
2019-04-25T10:45:46.006Z,0.93
2019-04-25T10:48:15.260Z,1.40
2019-04-25T10:50:46.835Z,1.43
2019-04-25T10:53:25.228Z,1.00
2019-04-25T10:55:53.762Z,1.50
2019-04-25T10:58:22.170Z,1.70
2019-04-25T11:00:52.975Z,1.60
2019-04-25T11:03:47.128Z,1.40
2019-04-25T11:06:20.117Z,1.33
2019-04-25T11:08:49.761Z,1.43
2019-04-25T11:11:18.415Z,1.00
2019-04-25T11:13:47.106Z,1.10
2019-04-25T11:16:16.176Z,1.23
2019-04-25T11:18:45.441Z,1.20
2019-04-25T11:21:15.249Z,1.00
2019-04-25T11:23:45.007Z,1.60
2019-04-25T11:26:14.289Z,1.30
2019-04-25T11:28:45.313Z,1.47
2019-04-25T11:31:20.774Z,1.30
2019-04-25T11:33:49.977Z,1.40
2019-04-25T11:36:19.202Z,1.40
2019-04-25T11:39:09.502Z,1.40
2019-04-25T11:41:40.130Z,1.60
2019-04-25T11:44:08.809Z,1.70
2019-04-25T11:46:39.332Z,1.60
2019-04-25T11:49:08.043Z,1.43
2019-04-25T11:51:36.711Z,1.50
2019-04-25T11:54:05.548Z,1.30
2019-04-25T11:56:34.368Z,1.20
2019-04-25T11:59:04.550Z,1.37
2019-04-25T12:01:33.659Z,1.17
2019-04-25T12:04:01.968Z,1.60
2019-04-25T12:06:30.663Z,1.60
2019-04-25T12:08:59.387Z,1.80
2019-04-25T12:11:29.273Z,1.20
2019-04-25T12:13:57.740Z,1.40
2019-04-25T12:16:26.563Z,0.97
2019-04-25T12:18:56.454Z,1.10
2019-04-25T12:21:25.241Z,1.17
2019-04-25T12:23:53.540Z,1.10
2019-04-25T12:26:24.246Z,1.53
2019-04-25T12:28:53.921Z,1.17
2019-04-25T12:31:24.524Z,1.10
2019-04-25T12:33:54.800Z,1.10
2019-04-25T12:36:24.038Z,1.13
2019-04-25T12:38:54.571Z,1.00
2019-04-25T12:41:23.332Z,1.00
2019-04-25T12:44:04.210Z,0.80
2019-04-25T12:46:38.803Z,1.20
2019-04-25T12:49:07.445Z,1.10
2019-04-25T12:51:36.396Z,1.20
2019-04-25T12:54:04.764Z,1.20
2019-04-25T12:56:34.135Z,1.20
2019-04-25T12:59:02.771Z,1.03
2019-04-25T13:01:33.263Z,1.10
2019-04-25T13:04:02.009Z,1.00
2019-04-25T13:06:30.664Z,1.00
2019-04-25T13:08:59.507Z,1.07
2019-04-25T13:11:28.266Z,1.07
2019-04-25T13:13:56.932Z,1.00
2019-04-25T13:16:25.450Z,1.00
2019-04-25T13:18:53.826Z,1.30
2019-04-25T13:21:23.457Z,1.10
2019-04-25T13:23:58.070Z,1.40
2019-04-25T13:26:31.631Z,1.43
2019-04-25T13:29:14.697Z,1.20
2019-04-25T13:31:58.575Z,1.07
2019-04-25T13:34:36.482Z,1.10
2019-04-25T13:37:06.199Z,1.30
2019-04-25T13:39:35.233Z,1.10
2019-04-25T13:42:05.273Z,1.57
2019-04-25T13:44:34.286Z,1.37
2019-04-25T13:47:04.204Z,0.97
2019-04-25T13:49:32.700Z,1.10
2019-04-25T13:52:04.042Z,1.10
2019-04-25T13:54:33.772Z,1.00
2019-04-25T13:57:03.341Z,1.20
2019-04-25T13:59:32.641Z,1.30
2019-04-25T14:02:04.082Z,1.20
2019-04-25T14:04:35.452Z,1.10
2019-04-25T14:07:04.330Z,1.23
2019-04-25T14:09:34.727Z,1.17
2019-04-25T14:12:04.456Z,1.40
2019-04-25T14:14:35.845Z,1.20
2019-04-25T14:17:16.158Z,1.40
2019-04-25T14:20:14.200Z,1.30
2019-04-25T14:22:45.798Z,1.40
2019-04-25T14:25:15.099Z,1.30
2019-04-25T14:27:44.018Z,1.37
2019-04-25T14:30:16.761Z,1.40
2019-04-25T14:32:46.779Z,1.40
2019-04-25T14:35:16.176Z,1.37
2019-04-25T14:37:46.235Z,1.10
2019-04-25T14:40:15.235Z,1.30
2019-04-25T14:42:44.720Z,1.50
2019-04-25T14:45:14.960Z,1.13
2019-04-25T14:47:44.721Z,1.10
2019-04-25T14:50:14.469Z,1.30
2019-04-25T14:52:43.920Z,1.20
2019-04-25T14:55:46.248Z,1.30
2019-04-25T14:58:17.766Z,1.37
2019-04-25T15:00:48.765Z,1.47
2019-04-25T15:03:17.829Z,1.30
2019-04-25T15:05:46.411Z,1.30
2019-04-25T15:08:15.951Z,1.20
2019-04-25T15:10:44.613Z,1.70
2019-04-25T15:13:13.744Z,1.30
2019-04-25T15:15:43.348Z,1.53
2019-04-25T15:18:24.758Z,1.30
2019-04-25T15:21:00.415Z,1.17
2019-04-25T15:23:36.729Z,1.13
2019-04-25T15:26:11.824Z,1.77
2019-04-25T15:28:49.640Z,1.40
2019-04-25T15:31:25.454Z,1.20
2019-04-25T15:34:04.658Z,1.30
2019-04-25T15:37:00.026Z,1.10
2019-04-25T15:40:04.658Z,1.27
2019-04-25T15:42:49.618Z,1.00
2019-04-25T15:45:34.400Z,1.53
2019-04-25T15:48:15.970Z,1.40
2019-04-25T15:50:51.415Z,1.40
2019-04-25T15:53:24.869Z,1.20
2019-04-25T15:56:03.046Z,1.20
2019-04-25T15:58:41.684Z,1.10
2019-04-25T16:01:21.823Z,1.00
2019-04-25T16:03:57.617Z,1.10
2019-04-25T16:06:39.499Z,1.10
2019-04-25T16:09:16.354Z,1.20
2019-04-25T16:11:53.719Z,1.30
2019-04-25T16:14:38.947Z,1.00
2019-04-25T16:17:16.690Z,0.90
2019-04-25T16:19:56.018Z,1.17
2019-04-25T16:22:32.565Z,1.10
2019-04-25T16:25:05.790Z,1.30
2019-04-25T16:27:41.081Z,1.07
2019-04-25T16:30:18.076Z,1.30
2019-04-25T16:32:54.915Z,1.37
2019-04-25T16:35:37.841Z,1.20
2019-04-25T16:38:16.892Z,1.53
2019-04-25T16:40:53.148Z,1.10
2019-04-25T16:43:34.003Z,1.83
2019-04-25T16:46:11.589Z,1.50
2019-04-25T16:48:49.595Z,1.10
2019-04-25T16:51:29.323Z,1.10
2019-04-25T16:54:05.190Z,1.10
2019-04-25T16:56:41.700Z,2.50
2019-04-25T16:59:17.046Z,2.57
2019-04-25T17:01:54.187Z,2.90
2019-04-25T17:04:31.102Z,1.40
2019-04-25T17:07:05.849Z,1.33
2019-04-25T17:09:42.957Z,1.70
2019-04-25T17:12:27.525Z,1.43
2019-04-25T17:15:21.999Z,1.93
2019-04-25T17:18:13.591Z,1.20
2019-04-25T17:21:06.104Z,1.70
2019-04-25T17:23:44.827Z,1.50
2019-04-25T17:26:20.346Z,1.57
2019-04-25T17:28:57.911Z,1.40
2019-04-25T17:31:49.103Z,1.30
2019-04-25T17:34:48.255Z,1.70
2019-04-25T17:37:44.195Z,2.00
2019-04-25T17:40:27.889Z,1.87
2019-04-25T17:43:10.999Z,1.33
2019-04-25T17:45:42.498Z,1.30
2019-04-25T17:48:26.622Z,1.27
2019-04-25T17:51:01.569Z,1.70
2019-04-25T17:53:41.257Z,1.67
2019-04-25T17:56:17.961Z,1.50
2019-04-25T17:58:53.498Z,1.50
2019-04-25T18:01:29.686Z,1.50
2019-04-25T18:04:16.784Z,1.63
2019-04-25T18:06:54.512Z,2.20
2019-04-25T18:09:30.368Z,1.70
2019-04-25T18:12:05.673Z,2.50
2019-04-25T18:14:46.463Z,2.93
2019-04-25T18:17:25.000Z,1.87
2019-04-25T18:20:16.314Z,1.90
2019-04-25T18:23:11.982Z,2.17
2019-04-25T18:26:17.528Z,2.10
2019-04-25T18:29:01.793Z,2.10
2019-04-25T18:31:43.823Z,2.40
2019-04-25T18:34:30.163Z,2.40
2019-04-25T18:37:17.594Z,2.70
2019-04-25T18:39:53.911Z,4.77
2019-04-25T18:42:48.736Z,3.10
2019-04-25T18:45:31.949Z,2.30
2019-04-25T18:48:06.057Z,2.70
2019-04-25T18:50:44.619Z,2.00
2019-04-25T18:53:54.905Z,2.73
2019-04-25T18:56:33.589Z,3.77
2019-04-25T18:59:32.754Z,3.60
2019-04-25T19:02:41.878Z,3.93
2019-04-25T19:05:40.973Z,4.97
2019-04-25T19:08:14.623Z,5.17
2019-04-25T19:10:54.068Z,5.47
2019-04-25T19:13:27.743Z,3.73
2019-04-25T19:16:04.322Z,4.20
2019-04-25T19:18:45.434Z,5.03
2019-04-25T19:21:19.332Z,5.20
2019-04-25T19:23:58.621Z,4.20
2019-04-25T19:26:42.268Z,4.00
2019-04-25T19:29:25.878Z,3.30
2019-04-25T19:32:02.951Z,3.50
2019-04-25T19:34:42.564Z,2.00
2019-04-25T19:37:19.932Z,2.10
2019-04-25T19:40:11.656Z,2.43
2019-04-25T19:42:49.082Z,2.60
2019-04-25T19:45:23.726Z,2.33
2019-04-25T19:48:01.567Z,2.30
2019-04-25T19:50:38.570Z,4.10
2019-04-25T19:53:13.404Z,2.37
2019-04-25T19:55:49.950Z,2.50
2019-04-25T19:58:24.471Z,2.70
2019-04-25T20:01:05.284Z,2.50
2019-04-25T20:04:00.963Z,2.10
2019-04-25T20:06:51.607Z,2.53
2019-04-25T20:09:59.527Z,2.30
2019-04-25T20:12:53.048Z,2.90
2019-04-25T20:15:38.456Z,2.80
2019-04-25T20:18:25.320Z,2.20
2019-04-25T20:21:02.608Z,2.53
2019-04-25T20:23:36.745Z,1.80
2019-04-25T20:26:12.363Z,1.97
2019-04-25T20:28:46.183Z,1.97
2019-04-25T20:31:21.642Z,1.80
2019-04-25T20:34:05.878Z,2.00
2019-04-25T20:36:33.448Z,1.80
2019-04-25T20:39:10.091Z,2.10
2019-04-25T20:41:43.805Z,2.30
2019-04-25T20:44:23.007Z,2.10
2019-04-25T20:46:57.698Z,1.90
2019-04-25T20:49:31.215Z,1.63
2019-04-25T20:52:15.295Z,1.73
2019-04-25T20:54:52.833Z,2.00
2019-04-25T20:57:28.302Z,2.40
2019-04-25T21:00:03.121Z,2.20
2019-04-25T21:02:39.056Z,3.20
2019-04-25T21:05:13.422Z,4.47
2019-04-25T21:07:48.937Z,3.10
2019-04-25T21:10:22.687Z,2.37
2019-04-25T21:13:00.593Z,2.30
2019-04-25T21:15:56.291Z,2.07
2019-04-25T21:18:42.737Z,2.73
2019-04-25T21:21:18.392Z,2.10
2019-04-25T21:23:53.711Z,2.17
2019-04-25T21:26:40.107Z,1.83
2019-04-25T21:29:23.424Z,1.90
2019-04-25T21:32:05.589Z,2.20
2019-04-25T21:34:41.476Z,1.70
2019-04-25T21:37:18.097Z,1.90
2019-04-25T21:40:12.100Z,2.13
2019-04-25T21:43:08.148Z,2.10
2019-04-25T21:45:42.974Z,2.13
2019-04-25T21:48:22.938Z,2.03
2019-04-25T21:51:04.205Z,2.30
2019-04-25T21:53:47.636Z,1.97
2019-04-25T21:56:29.590Z,2.50
2019-04-25T21:59:05.422Z,2.23
2019-04-25T22:01:48.452Z,2.70
2019-04-25T22:04:39.139Z,2.77
2019-04-25T22:07:13.107Z,2.30
2019-04-25T22:09:52.510Z,2.37
2019-04-25T22:12:32.927Z,2.40
2019-04-25T22:15:15.474Z,2.40
2019-04-25T22:17:45.108Z,2.50
2019-04-25T22:20:13.924Z,2.00
2019-04-25T22:22:42.691Z,2.33
2019-04-25T22:25:11.459Z,2.03
2019-04-25T22:27:40.190Z,1.93
2019-04-25T22:30:10.844Z,1.83
2019-04-25T22:33:02.125Z,1.50
2019-04-25T22:35:39.806Z,1.57
2019-04-25T22:38:09.183Z,1.50
2019-04-25T22:40:37.977Z,1.50
2019-04-25T22:43:08.041Z,1.57
2019-04-25T22:45:37.044Z,1.50
2019-04-25T22:48:06.674Z,1.30
2019-04-25T22:50:35.812Z,1.40
2019-04-25T22:53:04.520Z,1.40
2019-04-25T22:55:33.575Z,1.80
2019-04-25T22:58:02.762Z,1.50
2019-04-25T23:00:35.987Z,1.50
2019-04-25T23:03:20.455Z,1.30
2019-04-25T23:05:53.498Z,1.30
2019-04-25T23:08:22.614Z,1.40
2019-04-25T23:10:51.099Z,1.50
2019-04-25T23:13:19.513Z,1.90
2019-04-25T23:15:48.259Z,1.80
2019-04-25T23:18:16.936Z,1.40
2019-04-25T23:20:45.447Z,1.17
2019-04-25T23:23:14.111Z,1.30
2019-04-25T23:26:20.358Z,0.90
2019-04-25T23:28:50.365Z,1.27
2019-04-25T23:31:23.502Z,1.00
2019-04-25T23:33:53.903Z,1.00
2019-04-25T23:36:22.583Z,1.13
2019-04-25T23:38:51.075Z,0.90
2019-04-25T23:41:19.655Z,0.77
2019-04-25T23:43:50.298Z,1.00
2019-04-25T23:46:18.716Z,1.20
2019-04-25T23:48:47.454Z,0.87
2019-04-25T23:51:16.143Z,1.10
2019-04-25T23:53:45.130Z,0.93
2019-04-25T23:56:13.506Z,1.20
2019-04-25T23:58:41.889Z,0.90
